createdAt,value
2018-07-25T00:00:49.227Z,99456.39
2018-07-25T00:05:53.960Z,99460.23
2018-07-25T00:10:58.728Z,99460.59
2018-07-25T00:16:03.658Z,99457.37
2018-07-25T00:21:08.768Z,99462.34
2018-07-25T00:26:13.621Z,99461.55
2018-07-25T00:31:18.414Z,99465.64
2018-07-25T00:36:23.143Z,99470.91
2018-07-25T00:41:27.913Z,99462.76
2018-07-25T00:46:32.668Z,99460.36
2018-07-25T00:51:37.388Z,99462.58
2018-07-25T00:56:42.155Z,99460.67
2018-07-25T01:01:46.908Z,99469.70
2018-07-25T01:06:51.608Z,99471.36
2018-07-25T01:11:56.483Z,99473.03
2018-07-25T01:17:01.261Z,99475.22
2018-07-25T01:22:05.997Z,99478.49
2018-07-25T01:27:10.772Z,99475.22
2018-07-25T01:32:15.462Z,99479.31
2018-07-25T01:37:20.142Z,99482.08
2018-07-25T01:42:24.920Z,99480.42
2018-07-25T01:47:29.609Z,99485.36
2018-07-25T01:52:34.410Z,99488.90
2018-07-25T01:57:39.526Z,99485.06
2018-07-25T02:02:44.282Z,99488.34
2018-07-25T02:07:48.963Z,99482.59
2018-07-25T02:12:53.619Z,99485.33
2018-07-25T02:17:58.219Z,99479.61
2018-07-25T02:23:03.025Z,99488.05
2018-07-25T02:28:07.552Z,99487.80
2018-07-25T02:33:12.568Z,99496.24
2018-07-25T02:38:17.249Z,99498.16
2018-07-25T02:43:21.981Z,99501.98
2018-07-25T02:48:26.703Z,99501.72
2018-07-25T02:53:31.459Z,99508.20
2018-07-25T02:58:36.151Z,99505.17
2018-07-25T03:03:41.035Z,99506.52
2018-07-25T03:08:45.903Z,99512.77
2018-07-25T03:13:50.565Z,99519.33
2018-07-25T03:18:55.271Z,99518.48
2018-07-25T03:23:59.983Z,99526.10
2018-07-25T03:29:04.726Z,99534.02
2018-07-25T03:34:09.435Z,99533.18
2018-07-25T03:39:14.249Z,99535.36
2018-07-25T03:44:19.023Z,99528.84
2018-07-25T03:49:23.483Z,99535.41
2018-07-25T03:54:29.575Z,99540.86
2018-07-25T03:59:34.258Z,99544.19
2018-07-25T04:04:38.879Z,99552.43
2018-07-25T04:09:43.530Z,99558.73
2018-07-25T04:14:48.210Z,99558.75
2018-07-25T04:19:52.944Z,99552.32
2018-07-25T04:24:57.759Z,99564.06
2018-07-25T04:30:02.534Z,99558.66
2018-07-25T04:35:08.133Z,99571.55
2018-07-25T04:40:12.857Z,99571.09
2018-07-25T04:45:17.508Z,99578.59
2018-07-25T04:50:22.409Z,99578.89
2018-07-25T04:55:27.060Z,99573.44
2018-07-25T05:00:31.850Z,99576.98
2018-07-25T05:05:36.553Z,99572.30
2018-07-25T05:10:41.260Z,99576.22
2018-07-25T05:15:46.041Z,99578.99
2018-07-25T05:20:50.773Z,99582.36
2018-07-25T05:25:55.827Z,99584.56
2018-07-25T05:31:00.740Z,99584.99
2018-07-25T05:36:05.528Z,99593.58
2018-07-25T05:41:10.348Z,99598.34
2018-07-25T05:46:15.347Z,99595.97
2018-07-25T05:51:20.156Z,99592.87
2018-07-25T05:56:24.864Z,99588.06
2018-07-25T06:01:29.666Z,99602.88
2018-07-25T06:06:34.364Z,99605.16
2018-07-25T06:11:39.800Z,99602.47
2018-07-25T06:16:44.473Z,99603.00
2018-07-25T06:21:49.231Z,99604.27
2018-07-25T06:26:53.985Z,99599.18
2018-07-25T06:31:58.786Z,99596.06
2018-07-25T06:37:03.625Z,99599.22
2018-07-25T06:42:08.936Z,99599.61
2018-07-25T06:47:13.766Z,99597.80
2018-07-25T06:52:18.446Z,99602.02
2018-07-25T06:57:23.189Z,99604.36
2018-07-25T07:02:28.108Z,99601.66
2018-07-25T07:07:32.808Z,99598.60
2018-07-25T07:12:37.577Z,99601.35
2018-07-25T07:17:42.876Z,99604.92
2018-07-25T07:22:47.591Z,99607.83
2018-07-25T07:27:52.986Z,99603.53
2018-07-25T07:32:57.717Z,99606.70
2018-07-25T07:38:02.485Z,99595.49
2018-07-25T07:43:07.256Z,99605.33
2018-07-25T07:48:12.051Z,99596.22
2018-07-25T07:53:16.828Z,99591.93
2018-07-25T07:58:21.621Z,99594.31
2018-07-25T08:03:26.457Z,99593.92
2018-07-25T08:08:31.292Z,99597.52
2018-07-25T08:13:35.966Z,99593.45
2018-07-25T08:18:40.840Z,99597.58
2018-07-25T08:23:45.489Z,99585.27
2018-07-25T08:28:50.199Z,99587.20
2018-07-25T08:33:54.932Z,99586.27
2018-07-25T08:38:59.685Z,99581.13
2018-07-25T08:44:05.667Z,99584.09
2018-07-25T08:49:10.423Z,99581.20
2018-07-25T08:54:15.173Z,99579.42
2018-07-25T08:59:20.041Z,99570.66
2018-07-25T09:04:24.773Z,99573.52
2018-07-25T09:09:29.443Z,99576.50
2018-07-25T09:14:34.348Z,99570.67
2018-07-25T09:19:39.099Z,99569.27
2018-07-25T09:24:43.964Z,99565.63
2018-07-25T09:29:48.661Z,99569.92
2018-07-25T09:34:53.354Z,99571.61
2018-07-25T09:39:58.198Z,99570.42
2018-07-25T09:45:02.861Z,99560.45
2018-07-25T09:50:08.844Z,99559.80
2018-07-25T09:55:13.597Z,99549.06
2018-07-25T10:00:24.394Z,99550.02
2018-07-25T10:05:29.302Z,99549.20
2018-07-25T10:10:34.101Z,99543.92
2018-07-25T10:15:39.051Z,99536.52
2018-07-25T10:20:43.913Z,99543.31
2018-07-25T10:25:48.590Z,99533.11
2018-07-25T10:30:53.288Z,99528.23
2018-07-25T10:35:58.140Z,99521.68
2018-07-25T10:41:03.000Z,99513.67
2018-07-25T10:46:07.968Z,99510.50
2018-07-25T10:51:12.821Z,99503.65
2018-07-25T10:56:17.628Z,99498.63
2018-07-25T11:01:22.353Z,99497.11
2018-07-25T11:06:27.223Z,99491.08
2018-07-25T11:11:31.988Z,99483.59
2018-07-25T11:16:36.794Z,99477.79
2018-07-25T11:21:41.498Z,99479.62
2018-07-25T11:26:46.361Z,99478.31
2018-07-25T11:31:51.217Z,99474.83
2018-07-25T11:36:56.009Z,99475.02
2018-07-25T11:42:00.724Z,99473.58
2018-07-25T11:47:05.571Z,99466.20
2018-07-25T11:52:10.386Z,99467.40
2018-07-25T11:57:15.181Z,99464.12
2018-07-25T12:02:20.112Z,99457.52
2018-07-25T12:07:24.958Z,99447.41
2018-07-25T12:12:29.741Z,99441.65
2018-07-25T12:17:34.577Z,99427.68
2018-07-25T12:22:39.345Z,99437.39
2018-07-25T12:27:44.153Z,99432.44
2018-07-25T12:32:48.885Z,99427.83
2018-07-25T12:37:53.671Z,99422.81
2018-07-25T12:42:58.467Z,99411.86
2018-07-25T12:48:03.263Z,99408.75
2018-07-25T12:53:08.150Z,99398.19
2018-07-25T12:58:12.915Z,99410.06
2018-07-25T13:03:18.545Z,99396.78
2018-07-25T13:08:23.247Z,99407.73
2018-07-25T13:13:27.932Z,99402.30
2018-07-25T13:18:32.672Z,99419.87
2018-07-25T13:23:37.645Z,99418.67
2018-07-25T13:28:42.500Z,99421.87
2018-07-25T13:33:47.221Z,99426.05
2018-07-25T13:38:52.020Z,99421.31
2018-07-25T13:43:56.822Z,99414.64
2018-07-25T13:49:01.542Z,99413.55
2018-07-25T13:54:06.692Z,99413.72
2018-07-25T13:59:11.415Z,99420.51
2018-07-25T14:04:26.154Z,99422.88
2018-07-25T14:09:31.156Z,99426.71
2018-07-25T14:14:36.308Z,99416.59
2018-07-25T14:19:41.078Z,99428.53
2018-07-25T14:24:45.922Z,99435.84
2018-07-25T14:29:50.820Z,99429.02
2018-07-25T14:34:55.995Z,99430.66
2018-07-25T14:40:00.796Z,99432.91
2018-07-25T14:45:05.752Z,99424.59
2018-07-25T14:50:10.613Z,99427.16
2018-07-25T14:55:15.364Z,99414.19
2018-07-25T15:00:20.226Z,99414.66
2018-07-25T15:05:24.952Z,99408.08
2018-07-25T15:10:29.829Z,99404.19
2018-07-25T15:15:34.680Z,99396.45
2018-07-25T15:20:39.449Z,99397.84
2018-07-25T15:25:44.235Z,99385.95
2018-07-25T15:30:49.018Z,99372.30
2018-07-25T15:35:53.789Z,99372.41
2018-07-25T15:40:58.624Z,99365.56
2018-07-25T15:46:03.483Z,99372.44
2018-07-25T15:51:09.347Z,99368.28
2018-07-25T15:56:14.176Z,99374.73
2018-07-25T16:01:19.040Z,99369.27
2018-07-25T16:06:24.206Z,99369.86
2018-07-25T16:11:29.062Z,99367.01
2018-07-25T16:16:33.851Z,99353.88
2018-07-25T16:21:38.639Z,99347.55
2018-07-25T16:26:43.580Z,99345.29
2018-07-25T16:31:48.428Z,99342.42
2018-07-25T16:36:53.165Z,99341.03
2018-07-25T16:41:57.984Z,99342.66
2018-07-25T16:47:02.750Z,99341.98
2018-07-25T16:52:07.637Z,99341.26
2018-07-25T16:57:12.429Z,99340.81
2018-07-25T17:02:17.284Z,99340.11
2018-07-25T17:07:22.123Z,99339.16
2018-07-25T17:12:26.922Z,99332.54
2018-07-25T17:17:31.754Z,99337.64
2018-07-25T17:22:36.573Z,99331.00
2018-07-25T17:27:41.431Z,99339.14
2018-07-25T17:32:46.268Z,99335.36
2018-07-25T17:37:51.074Z,99332.92
2018-07-25T17:42:55.943Z,99339.94
2018-07-25T17:48:00.765Z,99341.66
2018-07-25T17:53:05.670Z,99346.41
2018-07-25T17:58:10.413Z,99347.41
2018-07-25T18:03:15.264Z,99350.50
2018-07-25T18:08:20.047Z,99356.53
2018-07-25T18:13:30.071Z,99357.30
2018-07-25T18:18:34.800Z,99369.87
2018-07-25T18:23:39.556Z,99377.90
2018-07-25T18:28:44.348Z,99384.86
2018-07-25T18:33:49.329Z,99387.56
2018-07-25T18:38:54.096Z,99400.20
2018-07-25T18:43:58.847Z,99401.95
2018-07-25T18:49:03.845Z,99414.37
2018-07-25T18:54:08.699Z,99420.05
2018-07-25T18:59:13.312Z,99420.97
2018-07-25T19:04:18.180Z,99427.78
2018-07-25T19:09:22.972Z,99429.94
2018-07-25T19:14:33.069Z,99435.83
2018-07-25T19:19:38.078Z,99444.67
2018-07-25T19:24:43.055Z,99453.88
2018-07-25T19:29:47.915Z,99466.19
2018-07-25T19:34:52.720Z,99462.27
2018-07-25T19:39:57.456Z,99472.56
2018-07-25T19:45:02.192Z,99473.06
2018-07-25T19:50:07.147Z,99475.13
2018-07-25T19:55:11.923Z,99482.55
2018-07-25T20:00:17.099Z,99482.44
2018-07-25T20:05:21.966Z,99478.52
2018-07-25T20:10:27.182Z,99486.55
2018-07-25T20:15:37.329Z,99483.52
2018-07-25T20:20:43.606Z,99479.80
2018-07-25T20:25:48.515Z,99482.94
2018-07-25T20:30:58.555Z,99485.19
2018-07-25T20:36:03.750Z,99495.57
2018-07-25T20:41:08.725Z,99495.66
2018-07-25T20:46:13.511Z,99507.20
2018-07-25T20:51:18.362Z,99513.25
2018-07-25T20:56:23.358Z,99518.29
2018-07-25T21:01:28.463Z,99516.06
2018-07-25T21:06:32.963Z,99519.34
2018-07-25T21:11:38.027Z,99524.09
2018-07-25T21:16:42.715Z,99528.06
2018-07-25T21:21:47.673Z,99532.19
2018-07-25T21:26:52.494Z,99535.91
2018-07-25T21:31:57.377Z,99538.17
2018-07-25T21:37:02.147Z,99536.68
2018-07-25T21:42:07.021Z,99543.98
2018-07-25T21:47:12.225Z,99543.17
2018-07-25T21:52:16.622Z,99552.97
2018-07-25T21:57:21.368Z,99553.25
2018-07-25T22:02:26.086Z,99550.00
2018-07-25T22:07:30.879Z,99553.13
2018-07-25T22:12:35.676Z,99551.70
2018-07-25T22:17:40.434Z,99560.50
2018-07-25T22:22:45.172Z,99558.30
2018-07-25T22:27:49.973Z,99561.77
2018-07-25T22:32:54.734Z,99562.36
2018-07-25T22:37:59.475Z,99562.98
2018-07-25T22:43:04.370Z,99572.27
2018-07-25T22:48:09.526Z,99570.42
2018-07-25T22:53:14.235Z,99570.84
2018-07-25T22:58:19.007Z,99575.41
2018-07-25T23:03:23.661Z,99577.45
2018-07-25T23:08:28.418Z,99583.09
2018-07-25T23:13:33.096Z,99591.70
2018-07-25T23:18:37.876Z,99591.84
2018-07-25T23:23:42.647Z,99592.22
2018-07-25T23:28:47.474Z,99592.22
2018-07-25T23:33:52.170Z,99586.53
2018-07-25T23:38:57.913Z,99595.03
2018-07-25T23:44:02.570Z,99601.98
2018-07-25T23:49:07.327Z,99595.44
2018-07-25T23:54:12.073Z,99591.97
2018-07-25T23:59:16.833Z,99585.72
